Time;durP1;ratioP1;P1;durP2;ratioP2;P2;SDS_P1;SDS_P2;PMS_P1;PMS_P2;Temp;Humidity;BMP_temperature;BMP_pressure;BME280_temperature;BME280_humidity;BME280_pressure;Samples;Min_cycle;Max_cycle;Signal;HPM_P1;HPM_P2
2023/06/20 00:00:38;;;;;;;;;;;;;;;20.18;100.00;101155.81;4971287;28;19926;-75
2023/06/20 00:03:03;;;;;;;;;;;;;;;20.19;100.00;101147.44;4968948;28;20482;-74
2023/06/20 00:05:28;;;;;;;;;;;;;;;20.25;100.00;101147.78;4970280;28;19957;-74
2023/06/20 00:07:54;;;;;;;;;;;;;;;20.20;100.00;101151.88;4968788;28;19928;-74
2023/06/20 00:10:19;;;;;;;;;;;;;;;20.21;100.00;101145.41;4969909;28;20357;-73
2023/06/20 00:12:44;;;;;;;;;;;;;;;20.25;100.00;101155.94;4964350;28;20461;-74
2023/06/20 00:15:10;;;;;;;;;;;;;;;20.24;100.00;101149.66;4965505;28;19922;-74
2023/06/20 00:17:35;;;;;;;;;;;;;;;20.20;100.00;101157.31;4969060;28;19922;-74
2023/06/20 00:20:04;;;;;;;;;;;;;;;20.17;100.00;101144.03;4971526;28;20011;-74
2023/06/20 00:22:29;;;;;;;;;;;;;;;20.19;100.00;101146.59;4969959;28;20292;-74
2023/06/20 00:24:54;;;;;;;;;;;;;;;20.20;100.00;101151.03;4970668;28;20258;-74
2023/06/20 00:27:19;;;;;;;;;;;;;;;20.26;100.00;101136.69;4971537;28;20049;-74
2023/06/20 00:29:45;;;;;;;;;;;;;;;20.28;100.00;101131.06;4970005;28;19927;-74
2023/06/20 00:32:10;;;;;;;;;;;;;;;20.29;100.00;101140.94;4971712;28;19925;-74
2023/06/20 00:34:35;;;;;;;;;;;;;;;20.28;100.00;101129.19;4971413;28;20439;-74
2023/06/20 00:37:00;;;;;;;;;;;;;;;20.31;100.00;101137.00;4968734;28;20295;-75
2023/06/20 00:39:25;;;;;;;;;;;;;;;20.34;100.00;101127.63;4966306;28;20312;-74
2023/06/20 00:41:51;;;;;;;;;;;;;;;20.35;100.00;101129.34;4971547;28;20281;-74
2023/06/20 00:44:16;;;;;;;;;;;;;;;20.39;99.32;101127.97;4971087;28;20319;-74
2023/06/20 00:46:41;;;;;;;;;;;;;;;20.36;99.54;101126.41;4971967;28;20423;-74
2023/06/20 00:49:07;;;;;;;;;;;;;;;20.40;100.00;101134.25;4966953;28;20443;-74
2023/06/20 00:51:32;;;;;;;;;;;;;;;20.41;97.32;101133.22;4970488;28;19921;-74
2023/06/20 00:53:57;;;;;;;;;;;;;;;20.43;99.47;101125.72;4965747;28;19933;-74
2023/06/20 00:56:23;;;;;;;;;;;;;;;20.43;97.45;101123.00;4966246;28;20424;-74
2023/06/20 00:58:49;;;;;;;;;;;;;;;20.43;96.48;101117.53;4966080;28;19934;-74
2023/06/20 01:01:16;;;;;;;;;;;;;;;20.42;96.98;101121.28;4967773;28;19972;-74
2023/06/20 01:03:42;;;;;;;;;;;;;;;20.48;96.18;101115.13;4966296;28;20020;-74
2023/06/20 01:06:23;;;;;;;;;;;;;;;20.49;94.33;101125.00;4967675;28;19932;-74
2023/06/20 01:08:59;;;;;;;;;;;;;;;20.48;93.44;101117.84;4969766;28;19933;-74
2023/06/20 01:11:36;;;;;;;;;;;;;;;20.49;93.80;101116.84;4968871;28;20021;-74
2023/06/20 01:14:33;;;;;;;;;;;;;;;20.48;95.23;101115.97;4968837;28;19922;-74
2023/06/20 01:17:17;;;;;;;;;;;;;;;20.49;93.93;101112.22;4946685;28;20316;-74
2023/06/20 01:19:49;;;;;;;;;;;;;;;20.52;92.88;101109.13;4974918;28;19929;-74
2023/06/20 01:22:49;;;;;;;;;;;;;;;20.51;92.63;101106.59;4972397;28;19937;-74
2023/06/20 01:25:18;;;;;;;;;;;;;;;20.56;92.24;101106.06;4926004;28;19929;-74
2023/06/20 01:27:59;;;;;;;;;;;;;;;20.57;91.99;101111.31;4959932;28;19972;-74
2023/06/20 01:30:26;;;;;;;;;;;;;;;20.61;90.63;101096.28;4975442;28;20018;-74
2023/06/20 01:32:52;;;;;;;;;;;;;;;20.64;88.79;101093.22;4972339;28;20285;-74
2023/06/20 01:35:20;;;;;;;;;;;;;;;20.66;88.61;101093.00;4972938;28;19928;-74
2023/06/20 01:37:46;;;;;;;;;;;;;;;20.65;89.37;101089.44;4967168;28;19976;-74
2023/06/20 01:40:11;;;;;;;;;;;;;;;20.64;85.49;101097.84;4965667;28;20420;-78
2023/06/20 01:42:36;;;;;;;;;;;;;;;20.65;86.86;101092.19;4968892;28;19922;-75
2023/06/20 01:45:02;;;;;;;;;;;;;;;20.64;86.25;101092.38;4964319;28;19922;-75
2023/06/20 01:47:27;;;;;;;;;;;;;;;20.65;86.71;101085.88;4961805;28;19922;-74
2023/06/20 01:49:53;;;;;;;;;;;;;;;20.63;85.78;101088.78;4970566;28;20612;-74
2023/06/20 01:52:18;;;;;;;;;;;;;;;20.60;86.50;101089.13;4969955;28;20416;-75
2023/06/20 01:54:46;;;;;;;;;;;;;;;20.59;88.04;101087.44;4971923;28;19928;-74
2023/06/20 01:57:11;;;;;;;;;;;;;;;20.65;87.30;101085.88;4965340;28;19941;-74
2023/06/20 01:59:37;;;;;;;;;;;;;;;20.68;86.83;101089.09;4971920;28;22128;-74
2023/06/20 02:02:02;;;;;;;;;;;;;;;20.65;85.99;101088.63;4967258;28;19929;-74
2023/06/20 02:04:27;;;;;;;;;;;;;;;20.62;85.62;101080.78;4970696;28;19925;-74
2023/06/20 02:06:52;;;;;;;;;;;;;;;20.64;86.54;101081.47;4974464;28;19922;-74
2023/06/20 02:09:18;;;;;;;;;;;;;;;20.63;86.74;101083.31;4971210;28;19972;-74
2023/06/20 02:11:43;;;;;;;;;;;;;;;20.59;86.00;101083.88;4960056;28;20408;-74
2023/06/20 02:14:08;;;;;;;;;;;;;;;20.65;87.80;101077.72;4967245;28;19972;-74
2023/06/20 02:16:34;;;;;;;;;;;;;;;20.63;86.20;101069.69;4975416;28;19921;-74
2023/06/20 02:19:00;;;;;;;;;;;;;;;20.68;85.60;101066.41;4967277;28;20254;-74
2023/06/20 02:21:26;;;;;;;;;;;;;;;20.65;86.17;101066.78;4970039;28;19922;-74
2023/06/20 02:23:52;;;;;;;;;;;;;;;20.66;86.04;101063.88;4963451;28;19961;-74
2023/06/20 02:26:18;;;;;;;;;;;;;;;20.61;86.31;101063.56;4947266;28;19930;-74
2023/06/20 02:28:50;;;;;;;;;;;;;;;20.60;87.20;101056.41;4969497;28;19937;-74
2023/06/20 02:31:19;;;;;;;;;;;;;;;20.58;86.83;101058.47;4971656;28;19926;-74
2023/06/20 02:33:45;;;;;;;;;;;;;;;20.57;86.20;101059.50;4950213;28;19932;-74
2023/06/20 02:36:10;;;;;;;;;;;;;;;20.59;87.07;101056.59;4969850;28;19921;-74
2023/06/20 02:38:35;;;;;;;;;;;;;;;20.59;86.34;101064.78;4964593;28;19922;-74
2023/06/20 02:41:00;;;;;;;;;;;;;;;20.58;87.25;101063.09;4969255;28;19929;-74
2023/06/20 02:43:26;;;;;;;;;;;;;;;20.52;86.39;101060.03;4969235;28;20400;-74
2023/06/20 02:45:59;;;;;;;;;;;;;;;20.55;87.36;101058.81;4966646;28;19983;-74
2023/06/20 02:48:34;;;;;;;;;;;;;;;20.58;87.19;101061.19;4950153;28;20034;-74
2023/06/20 02:51:21;;;;;;;;;;;;;;;20.55;88.56;101056.09;4967337;28;20377;-74
2023/06/20 02:54:07;;;;;;;;;;;;;;;20.53;88.49;101063.59;4970814;28;19929;-74
2023/06/20 02:56:32;;;;;;;;;;;;;;;20.50;89.31;101053.09;4968503;28;19992;-74
2023/06/20 02:58:57;;;;;;;;;;;;;;;20.48;88.86;101060.59;4965397;28;20016;-74
2023/06/20 03:01:24;;;;;;;;;;;;;;;20.49;89.74;101057.66;4974959;28;20239;-74
2023/06/20 03:03:49;;;;;;;;;;;;;;;20.51;91.74;101054.78;4975729;28;19925;-74
2023/06/20 03:06:15;;;;;;;;;;;;;;;20.42;92.20;101055.84;4978555;28;19929;-74
2023/06/20 03:08:42;;;;;;;;;;;;;;;20.37;91.49;101057.22;4969421;28;20183;-74
2023/06/20 03:11:07;;;;;;;;;;;;;;;20.35;92.10;101053.00;4967521;28;19926;-74
2023/06/20 03:13:33;;;;;;;;;;;;;;;20.32;91.93;101050.63;4967231;28;19922;-74
2023/06/20 03:15:58;;;;;;;;;;;;;;;20.31;91.94;101051.66;4970076;28;19976;-74
2023/06/20 03:18:24;;;;;;;;;;;;;;;20.34;92.22;101054.03;4974405;28;19984;-74
2023/06/20 03:20:49;;;;;;;;;;;;;;;20.33;92.00;101044.16;4974967;28;20281;-74
2023/06/20 03:23:15;;;;;;;;;;;;;;;20.31;93.95;101046.19;4968458;28;19922;-74
2023/06/20 03:25:40;;;;;;;;;;;;;;;20.24;94.16;101059.69;4974253;28;19922;-74
2023/06/20 03:28:05;;;;;;;;;;;;;;;20.19;94.70;101056.66;4973458;28;19922;-74
2023/06/20 03:30:30;;;;;;;;;;;;;;;20.16;94.27;101049.66;4978662;28;19922;-74
2023/06/20 03:32:56;;;;;;;;;;;;;;;20.14;95.40;101059.06;4969966;28;20008;-74
2023/06/20 03:35:21;;;;;;;;;;;;;;;20.09;98.57;101051.44;4969721;28;19921;-74
2023/06/20 03:37:46;;;;;;;;;;;;;;;20.05;98.68;101048.19;4971547;28;20326;-74
2023/06/20 03:40:11;;;;;;;;;;;;;;;20.01;98.05;101052.28;4972336;28;19932;-74
2023/06/20 03:42:36;;;;;;;;;;;;;;;19.98;100.00;101047.22;4971754;28;19922;-74
2023/06/20 03:45:02;;;;;;;;;;;;;;;19.93;100.00;101046.88;4972751;28;20024;-74
2023/06/20 03:47:27;;;;;;;;;;;;;;;19.89;100.00;101035.47;4972613;28;19932;-74
2023/06/20 03:49:52;;;;;;;;;;;;;;;19.86;100.00;101035.81;4974491;28;19918;-74
2023/06/20 03:52:17;;;;;;;;;;;;;;;19.77;100.00;101034.97;4976444;28;20406;-74
2023/06/20 03:54:43;;;;;;;;;;;;;;;19.74;100.00;101039.94;4975528;28;20000;-74
2023/06/20 03:57:08;;;;;;;;;;;;;;;19.65;100.00;101041.84;4967366;28;20024;-74
2023/06/20 03:59:33;;;;;;;;;;;;;;;19.64;100.00;101043.69;4971473;28;19932;-74
2023/06/20 04:01:58;;;;;;;;;;;;;;;19.63;100.00;101042.00;4966701;28;20199;-74
2023/06/20 04:04:24;;;;;;;;;;;;;;;19.58;100.00;101058.03;4970286;28;19960;-74
2023/06/20 04:06:49;;;;;;;;;;;;;;;19.52;100.00;101061.44;4974430;28;20097;-74
2023/06/20 04:09:17;;;;;;;;;;;;;;;19.48;100.00;101060.94;4976036;28;20390;-74
2023/06/20 04:11:43;;;;;;;;;;;;;;;19.44;100.00;101067.75;4973417;28;19925;-74
2023/06/20 04:14:08;;;;;;;;;;;;;;;19.46;100.00;101063.00;4975358;28;19926;-74
2023/06/20 04:16:33;;;;;;;;;;;;;;;19.50;100.00;101077.09;4974852;28;19976;-74
2023/06/20 04:18:58;;;;;;;;;;;;;;;19.52;100.00;101079.66;4967482;28;20053;-74
2023/06/20 04:21:24;;;;;;;;;;;;;;;19.51;100.00;101067.91;4967654;28;19925;-74
2023/06/20 04:23:49;;;;;;;;;;;;;;;19.46;100.00;101076.63;4966764;28;19932;-74
2023/06/20 04:26:14;;;;;;;;;;;;;;;19.42;100.00;101074.38;4972467;28;20242;-74
2023/06/20 04:28:39;;;;;;;;;;;;;;;19.39;100.00;101083.75;4968234;28;19925;-74
2023/06/20 04:31:05;;;;;;;;;;;;;;;19.35;100.00;101076.97;4971490;28;19922;-74
2023/06/20 04:33:30;;;;;;;;;;;;;;;19.40;100.00;101081.88;4966916;28;20295;-73
2023/06/20 04:35:57;;;;;;;;;;;;;;;19.21;100.00;101045.84;4972044;28;19921;-74
2023/06/20 04:38:22;;;;;;;;;;;;;;;19.48;100.00;101077.25;4970034;28;20368;-74
2023/06/20 04:40:47;;;;;;;;;;;;;;;19.53;100.00;101079.50;4968219;28;19929;-74
2023/06/20 04:43:12;;;;;;;;;;;;;;;19.57;100.00;101071.81;4968654;28;20296;-74
2023/06/20 04:45:38;;;;;;;;;;;;;;;19.59;100.00;101064.31;4968075;28;19969;-74
2023/06/20 04:48:03;;;;;;;;;;;;;;;19.64;100.00;101061.94;4963441;28;19926;-74
2023/06/20 04:50:29;;;;;;;;;;;;;;;19.68;100.00;101070.59;4969162;28;19936;-74
2023/06/20 04:52:54;;;;;;;;;;;;;;;19.68;100.00;101065.16;4964912;28;20394;-74
2023/06/20 04:55:20;;;;;;;;;;;;;;;19.70;100.00;101057.66;4966773;28;19928;-74
2023/06/20 04:57:47;;;;;;;;;;;;;;;19.64;100.00;101062.75;4949781;28;19926;-74
2023/06/20 05:00:12;;;;;;;;;;;;;;;19.64;100.00;101061.94;4947423;28;19988;-74
2023/06/20 05:02:42;;;;;;;;;;;;;;;19.71;100.00;101068.38;4966211;28;19925;-74
2023/06/20 05:05:07;;;;;;;;;;;;;;;19.69;100.00;101070.44;4968671;28;19922;-74
2023/06/20 05:07:32;;;;;;;;;;;;;;;19.69;100.00;101073.16;4970151;28;19995;-74
2023/06/20 05:09:58;;;;;;;;;;;;;;;19.79;100.00;101071.06;4969758;28;19949;-74
2023/06/20 05:12:23;;;;;;;;;;;;;;;19.91;100.00;101068.00;4965447;28;19936;-74
2023/06/20 05:14:48;;;;;;;;;;;;;;;19.95;100.00;101072.09;4961533;28;20118;-74
2023/06/20 05:17:14;;;;;;;;;;;;;;;19.99;100.00;101068.00;4969563;28;20364;-74
2023/06/20 05:19:39;;;;;;;;;;;;;;;20.00;100.00;101068.81;4966838;28;20507;-74
2023/06/20 05:22:04;;;;;;;;;;;;;;;20.00;100.00;101068.81;4972719;28;19980;-73
2023/06/20 05:24:29;;;;;;;;;;;;;;;20.01;100.00;101062.34;4966711;28;19958;-73
2023/06/20 05:26:54;;;;;;;;;;;;;;;20.03;100.00;101063.88;4976572;28;20033;-73
2023/06/20 05:29:20;;;;;;;;;;;;;;;20.02;100.00;101061.31;4982468;28;19929;-73
2023/06/20 05:31:45;;;;;;;;;;;;;;;20.04;100.00;101056.56;4974692;28;19972;-73
2023/06/20 05:34:10;;;;;;;;;;;;;;;20.02;100.00;101055.88;4968573;28;20020;-74
2023/06/20 05:36:35;;;;;;;;;;;;;;;20.05;100.00;101056.34;4968686;28;19918;-73
2023/06/20 05:39:01;;;;;;;;;;;;;;;20.05;100.00;101044.63;4967511;28;19949;-74
2023/06/20 05:41:26;;;;;;;;;;;;;;;20.06;100.00;101038.97;4969132;28;19922;-73
2023/06/20 05:43:51;;;;;;;;;;;;;;;20.20;100.00;101037.38;4971087;28;19957;-73
2023/06/20 05:46:16;;;;;;;;;;;;;;;20.32;100.00;101035.09;4973075;28;19954;-74
2023/06/20 05:48:43;;;;;;;;;;;;;;;20.50;100.00;101025.81;4968488;28;19922;-73
2023/06/20 05:51:11;;;;;;;;;;;;;;;20.67;100.00;101027.38;4957989;28;20012;-73
2023/06/20 05:53:41;;;;;;;;;;;;;;;20.88;100.00;101025.88;4964480;28;20294;-73
2023/06/20 05:56:06;;;;;;;;;;;;;;;20.95;100.00;101023.25;4973530;28;19922;-73
2023/06/20 05:58:32;;;;;;;;;;;;;;;21.11;100.00;101017.66;4968737;28;19977;-72
2023/06/20 06:00:58;;;;;;;;;;;;;;;21.17;100.00;101018.81;4968453;28;19926;-73
2023/06/20 06:03:23;;;;;;;;;;;;;;;21.28;100.00;101022.97;4966289;28;20380;-73
2023/06/20 06:05:49;;;;;;;;;;;;;;;21.39;100.00;101022.53;4968728;28;20060;-72
2023/06/20 06:08:14;;;;;;;;;;;;;;;21.50;100.00;101025.81;4966872;28;19926;-73
2023/06/20 06:10:39;;;;;;;;;;;;;;;21.62;100.00;101018.03;4967737;28;19932;-73
2023/06/20 06:13:04;;;;;;;;;;;;;;;21.68;100.00;101029.06;4964229;28;20357;-73
2023/06/20 06:15:30;;;;;;;;;;;;;;;21.71;100.00;101038.75;4965807;28;20469;-72
2023/06/20 06:17:55;;;;;;;;;;;;;;;21.80;100.00;101043.09;4965908;28;20385;-73
2023/06/20 06:20:23;;;;;;;;;;;;;;;21.86;100.00;101046.94;4960915;28;20037;-74
2023/06/20 06:22:48;;;;;;;;;;;;;;;22.00;100.00;101051.53;4963671;28;20568;-73
2023/06/20 06:25:14;;;;;;;;;;;;;;;22.14;100.00;101052.56;4987637;28;19918;-73
2023/06/20 06:27:39;;;;;;;;;;;;;;;22.23;100.00;101052.47;4972368;28;20439;-73
2023/06/20 06:30:05;;;;;;;;;;;;;;;22.03;100.00;101042.13;4995049;28;20387;-73
2023/06/20 06:32:30;;;;;;;;;;;;;;;21.87;100.00;101035.81;4966423;28;20732;-74
2023/06/20 06:34:59;;;;;;;;;;;;;;;21.89;100.00;101054.78;4955540;28;20427;-75
2023/06/20 06:37:25;;;;;;;;;;;;;;;22.02;100.00;101045.91;4969452;28;20348;-74
2023/06/20 06:39:50;;;;;;;;;;;;;;;22.06;100.00;101039.03;4971796;28;19929;-75
2023/06/20 06:42:15;;;;;;;;;;;;;;;22.01;100.00;101022.34;4971330;28;19957;-74
2023/06/20 06:44:40;;;;;;;;;;;;;;;22.27;100.00;101035.47;4976887;28;20060;-75
2023/06/20 06:47:05;;;;;;;;;;;;;;;22.40;100.00;101028.47;4974212;28;19932;-76
2023/06/20 06:49:31;;;;;;;;;;;;;;;22.42;100.00;101032.69;4970307;28;19922;-79
2023/06/20 06:51:56;;;;;;;;;;;;;;;22.35;100.00;101031.78;4950709;28;19969;-75
2023/06/20 06:54:21;;;;;;;;;;;;;;;22.40;100.00;101036.66;4972009;28;20014;-74
2023/06/20 06:56:47;;;;;;;;;;;;;;;22.44;100.00;101036.13;4977865;28;20028;-74
2023/06/20 06:59:12;;;;;;;;;;;;;;;22.64;100.00;101035.50;4969008;28;20052;-75
2023/06/20 07:01:38;;;;;;;;;;;;;;;22.88;100.00;101044.34;4969234;28;19917;-75
2023/06/20 07:04:03;;;;;;;;;;;;;;;22.91;100.00;101049.41;4971963;28;19922;-73
2023/06/20 07:06:29;;;;;;;;;;;;;;;22.98;100.00;101047.59;4971269;28;20385;-75
2023/06/20 07:08:54;;;;;;;;;;;;;;;22.99;100.00;101048.44;4971827;28;20009;-75
2023/06/20 07:11:20;;;;;;;;;;;;;;;23.06;100.00;101050.19;4972600;28;20016;-76
2023/06/20 07:13:45;;;;;;;;;;;;;;;23.04;100.00;101051.44;4969500;28;19921;-76
2023/06/20 07:16:10;;;;;;;;;;;;;;;23.04;100.00;101044.06;4969263;28;19922;-74
2023/06/20 07:18:35;;;;;;;;;;;;;;;23.08;100.00;101044.50;4965603;28;19933;-77
2023/06/20 07:21:02;;;;;;;;;;;;;;;23.13;100.00;101054.88;4973164;28;19929;-75
2023/06/20 07:23:28;;;;;;;;;;;;;;;23.01;100.00;101046.38;4975360;28;19925;-72
2023/06/20 07:25:53;;;;;;;;;;;;;;;22.99;100.00;101035.59;4966282;28;19929;-74
2023/06/20 07:28:18;;;;;;;;;;;;;;;23.05;100.00;101037.56;4973678;28;19922;-77
2023/06/20 07:30:43;;;;;;;;;;;;;;;23.21;100.00;101032.81;4968698;28;19922;-75
2023/06/20 07:33:09;;;;;;;;;;;;;;;23.28;100.00;101033.75;4973552;28;19926;-77
2023/06/20 07:35:34;;;;;;;;;;;;;;;23.35;100.00;101031.91;4968467;28;19945;-78
2023/06/20 07:37:59;;;;;;;;;;;;;;;23.30;100.00;101034.41;4975241;28;19926;-77
2023/06/20 07:40:24;;;;;;;;;;;;;;;23.49;100.00;101035.59;4972789;28;20336;-74
2023/06/20 07:42:49;;;;;;;;;;;;;;;23.70;100.00;101035.72;4962835;28;20344;-76
2023/06/20 07:45:15;;;;;;;;;;;;;;;23.80;100.00;101025.22;4972103;28;19928;-76
2023/06/20 07:47:40;;;;;;;;;;;;;;;23.74;100.00;101021.41;4969733;28;20001;-77
2023/06/20 07:50:05;;;;;;;;;;;;;;;23.90;99.79;101022.97;4964063;28;19929;-77
2023/06/20 07:52:32;;;;;;;;;;;;;;;24.00;100.00;101010.78;4965459;28;19928;-77
2023/06/20 07:54:57;;;;;;;;;;;;;;;24.01;100.00;101009.72;4970443;28;19921;-76
2023/06/20 07:57:22;;;;;;;;;;;;;;;24.20;100.00;101011.72;4969307;28;20375;-76
2023/06/20 07:59:48;;;;;;;;;;;;;;;24.29;98.48;100995.06;4966837;28;20277;-75
2023/06/20 08:02:13;;;;;;;;;;;;;;;24.45;100.00;101007.53;4973447;28;19939;-79
2023/06/20 08:04:39;;;;;;;;;;;;;;;24.50;100.00;101005.03;4967671;28;20012;-77
2023/06/20 08:07:04;;;;;;;;;;;;;;;24.38;94.13;101002.06;4969796;28;20444;-73
2023/06/20 08:09:29;;;;;;;;;;;;;;;24.46;100.00;101001.00;4968647;28;19932;-76
2023/06/20 08:11:54;;;;;;;;;;;;;;;24.66;100.00;100995.56;4974492;28;19922;-74
2023/06/20 08:14:20;;;;;;;;;;;;;;;24.81;100.00;101000.88;4964938;28;19922;-73
2023/06/20 08:16:45;;;;;;;;;;;;;;;24.93;93.28;100999.19;4974076;28;19944;-79
2023/06/20 08:19:10;;;;;;;;;;;;;;;25.05;92.13;100990.31;4975786;28;20263;-75
2023/06/20 08:21:37;;;;;;;;;;;;;;;25.22;100.00;100996.22;4975403;28;19921;-78
2023/06/20 08:24:02;;;;;;;;;;;;;;;25.36;98.92;100997.88;4958766;28;19984;-77
2023/06/20 08:26:28;;;;;;;;;;;;;;;25.43;88.57;100995.13;4997335;28;20373;-77
2023/06/20 08:28:53;;;;;;;;;;;;;;;25.50;92.84;101003.38;4972830;28;19953;-77
2023/06/20 08:31:18;;;;;;;;;;;;;;;25.61;95.43;101008.19;4968174;28;20706;-79
2023/06/20 08:33:44;;;;;;;;;;;;;;;25.75;86.74;100995.25;4969208;28;19922;-78
2023/06/20 08:36:10;;;;;;;;;;;;;;;25.87;90.57;101004.53;4976522;28;19925;-78
2023/06/20 08:38:35;;;;;;;;;;;;;;;26.02;91.25;101006.16;4971884;28;19988;-76
2023/06/20 08:41:03;;;;;;;;;;;;;;;26.04;88.82;101007.63;4968825;28;19965;-76
2023/06/20 08:43:29;;;;;;;;;;;;;;;26.11;86.56;101007.59;4958621;28;20323;-79
2023/06/20 08:45:55;;;;;;;;;;;;;;;26.16;86.21;100996.81;4976907;28;19921;-76
2023/06/20 08:48:21;;;;;;;;;;;;;;;26.22;87.07;101005.25;4978777;28;19928;-79
2023/06/20 08:50:48;;;;;;;;;;;;;;;26.21;90.22;101001.66;4969945;28;19922;-79
2023/06/20 08:53:13;;;;;;;;;;;;;;;26.02;86.83;100998.75;4968270;28;19918;-77
2023/06/20 08:55:38;;;;;;;;;;;;;;;25.44;85.41;100996.81;4975031;28;19922;-78
2023/06/20 08:58:06;;;;;;;;;;;;;;;25.30;88.07;100984.97;4970472;28;20017;-75
2023/06/20 09:00:31;;;;;;;;;;;;;;;25.33;90.95;100997.47;4965917;28;20444;-75
2023/06/20 09:02:56;;;;;;;;;;;;;;;25.64;90.66;100990.44;4971732;28;19917;-76
2023/06/20 09:05:21;;;;;;;;;;;;;;;25.92;92.31;100995.63;4971712;28;19929;-80
2023/06/20 09:07:47;;;;;;;;;;;;;;;26.17;91.14;100995.75;4974440;28;19922;-77
2023/06/20 09:10:14;;;;;;;;;;;;;;;26.39;83.64;100995.41;4974003;28;19961;-73
2023/06/20 09:12:58;;;;;;;;;;;;;;;26.50;82.69;100983.66;4970063;28;19929;-76
2023/06/20 09:15:24;;;;;;;;;;;;;;;26.80;81.18;100990.47;4969474;28;20534;-76
2023/06/20 09:17:51;;;;;;;;;;;;;;;26.78;83.84;100989.84;4966125;28;19925;-83
2023/06/20 09:20:16;;;;;;;;;;;;;;;26.92;78.89;100988.66;4971358;28;20361;-77
2023/06/20 09:22:41;;;;;;;;;;;;;;;27.02;77.35;100984.56;4967899;28;19921;-82
2023/06/20 09:25:07;;;;;;;;;;;;;;;26.76;76.29;100984.53;4971092;28;19950;-80
2023/06/20 09:27:36;;;;;;;;;;;;;;;26.66;80.56;100981.47;4969010;28;19922;-78
2023/06/20 09:30:03;;;;;;;;;;;;;;;26.94;76.77;100978.28;4972290;28;19928;-75
2023/06/20 09:32:31;;;;;;;;;;;;;;;27.13;81.97;100986.59;4974352;28;19964;-76
2023/06/20 09:34:57;;;;;;;;;;;;;;;26.81;77.68;100989.41;4971395;28;19988;-74
2023/06/20 09:37:22;;;;;;;;;;;;;;;26.65;78.66;100994.38;4971812;28;20368;-76
2023/06/20 09:39:47;;;;;;;;;;;;;;;26.31;80.16;100995.66;4969038;28;19932;-75
2023/06/20 09:42:12;;;;;;;;;;;;;;;26.52;80.53;100991.72;4973620;28;19922;-77
2023/06/20 09:44:38;;;;;;;;;;;;;;;26.59;79.40;100997.19;4972824;28;19922;-79
2023/06/20 09:47:04;;;;;;;;;;;;;;;26.86;80.86;101002.50;4975795;28;19929;-77
2023/06/20 09:49:29;;;;;;;;;;;;;;;26.76;80.05;100998.31;4964821;28;19929;-81
2023/06/20 09:51:54;;;;;;;;;;;;;;;26.67;81.67;100999.66;4971231;28;19921;-79
2023/06/20 09:54:27;;;;;;;;;;;;;;;26.51;76.25;101003.81;4974457;28;19970;-78
2023/06/20 09:56:54;;;;;;;;;;;;;;;26.47;75.89;100995.16;4973787;28;19930;-76
2023/06/20 09:59:19;;;;;;;;;;;;;;;26.80;78.73;100998.72;4971781;28;19952;-75
2023/06/20 10:01:45;;;;;;;;;;;;;;;26.83;83.00;100995.56;4963969;28;20488;-76
2023/06/20 10:04:10;;;;;;;;;;;;;;;26.60;80.36;100990.59;4987871;28;19921;-75
2023/06/20 10:06:38;;;;;;;;;;;;;;;26.69;80.52;100993.91;4973571;28;19936;-77
2023/06/20 10:09:07;;;;;;;;;;;;;;;26.97;77.07;101000.94;4971473;28;20410;-76
2023/06/20 10:11:36;;;;;;;;;;;;;;;27.57;79.18;100994.84;4993873;28;19929;-77
2023/06/20 10:14:02;;;;;;;;;;;;;;;27.67;81.72;101003.44;4949471;28;19921;-77
2023/06/20 10:16:28;;;;;;;;;;;;;;;27.29;76.97;101004.44;4972600;28;19922;-79
2023/06/20 10:18:53;;;;;;;;;;;;;;;27.21;75.78;100996.50;4975513;28;19922;-77
2023/06/20 10:21:18;;;;;;;;;;;;;;;27.00;74.92;100993.06;4971411;28;20272;-76
2023/06/20 10:23:44;;;;;;;;;;;;;;;27.18;75.02;100983.16;4977395;28;20016;-75
2023/06/20 10:26:10;;;;;;;;;;;;;;;27.38;78.21;100983.78;4978114;28;20064;-80
2023/06/20 10:28:38;;;;;;;;;;;;;;;27.33;74.70;100980.03;4972653;28;19967;-78
2023/06/20 10:31:04;;;;;;;;;;;;;;;27.23;74.54;100981.41;4966548;28;19921;-77
2023/06/20 10:33:30;;;;;;;;;;;;;;;27.62;70.27;100978.47;4970450;28;19922;-77
2023/06/20 10:36:11;;;;;;;;;;;;;;;27.73;73.64;100987.88;4955590;28;20381;-77
2023/06/20 10:38:37;;;;;;;;;;;;;;;28.01;69.93;100985.63;4965015;28;19921;-81
2023/06/20 10:41:15;;;;;;;;;;;;;;;27.92;65.95;100974.91;4975514;28;20393;-75
2023/06/20 10:43:50;;;;;;;;;;;;;;;28.39;68.56;100976.19;4967561;28;20353;-78
2023/06/20 10:46:16;;;;;;;;;;;;;;;28.29;64.99;100976.78;4966927;28;19926;-80
2023/06/20 10:48:41;;;;;;;;;;;;;;;28.34;72.94;100976.91;4970782;28;20391;-79
2023/06/20 10:51:06;;;;;;;;;;;;;;;28.61;66.61;100959.06;4971908;28;19922;-77
2023/06/20 10:53:32;;;;;;;;;;;;;;;28.97;69.77;100958.09;4970821;28;20347;-77
2023/06/20 10:55:57;;;;;;;;;;;;;;;29.22;57.60;100947.84;4971260;28;19925;-76
2023/06/20 10:58:22;;;;;;;;;;;;;;;29.87;62.69;100949.50;4962682;28;19922;-75
2023/06/20 11:00:50;;;;;;;;;;;;;;;29.93;60.12;100945.78;4967798;28;20266;-77
2023/06/20 11:03:16;;;;;;;;;;;;;;;29.61;60.75;100942.63;4962756;28;19954;-77
2023/06/20 11:05:41;;;;;;;;;;;;;;;29.57;58.86;100953.34;4971243;28;20403;-77
2023/06/20 11:08:10;;;;;;;;;;;;;;;29.07;58.41;100949.19;4965507;28;19945;-74
2023/06/20 11:10:36;;;;;;;;;;;;;;;29.68;54.53;100942.50;4973668;28;19960;-73
2023/06/20 11:13:02;;;;;;;;;;;;;;;30.25;59.09;100927.00;4973179;28;20130;-74
2023/06/20 11:15:28;;;;;;;;;;;;;;;31.15;50.51;100926.25;4973444;28;19922;-76
2023/06/20 11:17:53;;;;;;;;;;;;;;;31.10;50.33;100930.63;4965240;28;19929;-77
2023/06/20 11:20:20;;;;;;;;;;;;;;;30.42;51.75;100897.38;4975438;28;20285;-75
2023/06/20 11:22:46;;;;;;;;;;;;;;;30.59;53.57;100918.75;4976347;28;19928;-76
2023/06/20 11:25:11;;;;;;;;;;;;;;;31.00;52.08;100911.06;4969445;28;19926;-78
2023/06/20 11:27:36;;;;;;;;;;;;;;;31.69;49.77;100914.47;4975418;28;19922;-77
2023/06/20 11:30:02;;;;;;;;;;;;;;;32.65;48.16;100900.13;4965962;28;20288;-76
2023/06/20 11:32:27;;;;;;;;;;;;;;;33.15;46.79;100918.25;4973592;28;19928;-75
2023/06/20 11:34:53;;;;;;;;;;;;;;;32.29;51.32;100911.81;4955138;28;19961;-77
2023/06/20 11:37:19;;;;;;;;;;;;;;;31.83;53.17;100915.75;4972874;28;20375;-79
2023/06/20 11:39:44;;;;;;;;;;;;;;;31.88;50.62;100917.75;4968865;28;19930;-78
2023/06/20 11:42:13;;;;;;;;;;;;;;;31.85;49.98;100912.72;4977524;28;19922;-74
2023/06/20 11:44:38;;;;;;;;;;;;;;;32.08;50.64;100913.50;4975354;28;19984;-75
2023/06/20 11:47:04;;;;;;;;;;;;;;;31.71;46.24;100921.44;4976122;28;19922;-74
2023/06/20 11:49:30;;;;;;;;;;;;;;;31.99;48.27;100916.75;4971793;28;20038;-76
2023/06/20 11:51:55;;;;;;;;;;;;;;;32.29;49.55;100911.81;4965454;28;19922;-79
2023/06/20 11:54:22;;;;;;;;;;;;;;;32.25;46.02;100907.84;4971466;28;19933;-81
2023/06/20 11:56:50;;;;;;;;;;;;;;;31.88;48.30;100908.56;4973006;28;20033;-74
2023/06/20 11:59:20;;;;;;;;;;;;;;;31.82;48.98;100899.38;4967762;28;19926;-76
2023/06/20 12:01:46;;;;;;;;;;;;;;;33.10;46.53;100892.38;4972014;28;20669;-77
2023/06/20 12:04:14;;;;;;;;;;;;;;;33.45;43.61;100899.22;4968567;28;19920;-74
2023/06/20 12:06:41;;;;;;;;;;;;;;;33.30;44.42;100902.75;4952967;28;19968;-80
2023/06/20 12:09:09;;;;;;;;;;;;;;;33.47;43.48;100903.41;4960098;28;19918;-76
2023/06/20 12:11:36;;;;;;;;;;;;;;;32.53;43.82;100889.22;4964870;28;20404;-77
2023/06/20 12:14:02;;;;;;;;;;;;;;;32.57;45.69;100890.34;4969007;28;20223;-77
2023/06/20 12:16:27;;;;;;;;;;;;;;;32.33;47.64;100887.91;4968117;28;19921;-75
2023/06/20 12:18:52;;;;;;;;;;;;;;;31.54;49.97;100896.50;4965886;28;19972;-74
2023/06/20 12:21:18;;;;;;;;;;;;;;;32.81;48.15;100895.50;4973477;28;20566;-74
2023/06/20 12:23:43;;;;;;;;;;;;;;;34.56;45.12;100880.50;4969057;28;19929;-74
2023/06/20 12:26:08;;;;;;;;;;;;;;;34.55;41.06;100896.38;4967494;28;19925;-75
2023/06/20 12:28:35;;;;;;;;;;;;;;;33.87;43.69;100887.09;4959764;28;20013;-75